createdAt,value
2022-11-04T00:01:59.984Z,11.00
2022-11-04T00:04:30.972Z,10.63
2022-11-04T00:06:59.431Z,11.17
2022-11-04T00:09:30.174Z,10.60
2022-11-04T00:12:16.532Z,10.90
2022-11-04T00:14:45.249Z,10.63
2022-11-04T00:17:22.944Z,11.60
2022-11-04T00:20:11.474Z,11.37
2022-11-04T00:22:58.177Z,10.40
2022-11-04T00:25:44.552Z,11.50
2022-11-04T00:28:32.040Z,12.90
2022-11-04T00:31:22.995Z,11.90
2022-11-04T00:33:51.926Z,11.97
2022-11-04T00:36:22.678Z,12.13
2022-11-04T00:38:51.037Z,15.10
2022-11-04T00:41:28.957Z,14.20
2022-11-04T00:43:59.088Z,17.70
2022-11-04T00:46:28.839Z,25.13
2022-11-04T00:48:57.758Z,35.57
2022-11-04T00:51:27.720Z,44.47
2022-11-04T00:53:58.116Z,49.23
2022-11-04T00:56:26.454Z,51.37
2022-11-04T00:58:54.946Z,53.83
2022-11-04T01:01:23.445Z,59.13
2022-11-04T01:03:54.402Z,57.33
2022-11-04T01:06:24.454Z,66.83
2022-11-04T01:08:58.544Z,72.23
2022-11-04T01:11:28.282Z,72.87
2022-11-04T01:13:57.495Z,65.87
2022-11-04T01:18:56.591Z,58.63
2022-11-04T01:21:24.997Z,57.40
2022-11-04T01:23:53.781Z,59.40
2022-11-04T01:26:25.486Z,56.17
2022-11-04T01:28:55.581Z,56.47
2022-11-04T01:31:25.570Z,60.03
2022-11-04T01:33:55.075Z,64.53
2022-11-04T01:36:24.102Z,66.53
2022-11-04T01:38:52.617Z,69.37
2022-11-04T01:41:24.563Z,68.80
2022-11-04T01:43:54.932Z,66.67
2022-11-04T01:46:30.283Z,66.47
2022-11-04T01:49:04.928Z,66.83
2022-11-04T01:51:36.688Z,68.87
2022-11-04T01:54:07.449Z,68.03
2022-11-04T01:56:37.750Z,72.93
2022-11-04T01:59:10.093Z,72.57
2022-11-04T02:01:38.478Z,75.97
2022-11-04T02:04:25.148Z,74.73
2022-11-04T02:06:57.561Z,73.90
2022-11-04T02:09:29.677Z,77.30
2022-11-04T02:12:16.944Z,112.90
2022-11-04T02:14:47.739Z,11.20
2022-11-04T02:17:30.101Z,11.37
2022-11-04T02:20:25.143Z,10.70
2022-11-04T02:23:38.032Z,11.10
2022-11-04T02:26:40.543Z,9.47
2022-11-04T02:29:21.274Z,11.77
2022-11-04T02:31:57.989Z,10.30
2022-11-04T02:34:34.680Z,11.00
2022-11-04T02:37:10.617Z,11.47
2022-11-04T02:39:49.560Z,11.90
2022-11-04T02:42:25.495Z,10.37
2022-11-04T02:45:09.448Z,10.87
2022-11-04T02:47:40.521Z,10.13
2022-11-04T02:50:14.218Z,10.23
2022-11-04T02:52:50.272Z,11.00
2022-11-04T02:55:23.867Z,10.37
2022-11-04T02:57:56.206Z,10.57
2022-11-04T03:00:26.604Z,11.03
2022-11-04T03:02:58.635Z,10.93
2022-11-04T03:05:29.368Z,12.00
2022-11-04T03:08:01.637Z,11.63
2022-11-04T03:10:36.758Z,11.77
2022-11-04T03:13:11.282Z,11.67
2022-11-04T03:15:43.172Z,11.97
2022-11-04T03:18:21.141Z,11.73
2022-11-04T03:20:51.001Z,11.47
2022-11-04T03:23:20.032Z,11.93
2022-11-04T03:25:52.069Z,12.60
2022-11-04T03:28:28.407Z,12.03
2022-11-04T03:31:02.241Z,12.27
2022-11-04T03:33:39.412Z,11.87
2022-11-04T03:36:09.052Z,11.70
2022-11-04T03:38:38.199Z,13.00
2022-11-04T03:41:12.981Z,12.10
2022-11-04T03:43:42.794Z,11.43
2022-11-04T03:46:12.680Z,12.57
2022-11-04T03:48:42.924Z,12.23
2022-11-04T03:51:11.237Z,12.33
2022-11-04T03:53:39.953Z,12.60
2022-11-04T03:56:30.830Z,12.37
2022-11-04T03:59:11.925Z,12.73
2022-11-04T04:01:49.352Z,11.87
2022-11-04T04:04:24.019Z,12.60
2022-11-04T04:06:55.750Z,11.63
2022-11-04T04:09:27.815Z,13.03
2022-11-04T04:12:02.876Z,12.83
2022-11-04T04:14:41.341Z,11.93
2022-11-04T04:17:19.193Z,11.97
2022-11-04T04:19:53.343Z,12.30
2022-11-04T04:22:24.664Z,12.80
2022-11-04T04:25:14.164Z,12.53
2022-11-04T04:27:43.838Z,12.20
2022-11-04T04:30:14.640Z,12.27
2022-11-04T04:32:47.567Z,13.07
2022-11-04T04:35:34.259Z,11.80
2022-11-04T04:38:19.073Z,11.77
2022-11-04T04:41:10.041Z,12.07
2022-11-04T04:44:11.608Z,12.33
2022-11-04T04:46:41.003Z,12.63
2022-11-04T04:49:10.972Z,12.77
2022-11-04T04:51:41.984Z,11.43
2022-11-04T04:54:10.352Z,12.60
2022-11-04T04:56:39.051Z,12.10
2022-11-04T04:59:07.756Z,12.23
2022-11-04T05:01:36.421Z,12.77
2022-11-04T05:04:04.871Z,12.33
2022-11-04T05:06:34.814Z,12.70
2022-11-04T05:09:03.032Z,12.90
2022-11-04T05:11:31.605Z,12.53
2022-11-04T05:13:59.943Z,12.90
2022-11-04T05:16:28.416Z,13.00
2022-11-04T05:18:56.678Z,13.43
2022-11-04T05:21:25.198Z,12.70
2022-11-04T05:23:54.810Z,14.23
2022-11-04T05:26:23.513Z,15.57
2022-11-04T05:28:51.735Z,12.13
2022-11-04T05:31:20.183Z,13.63
2022-11-04T05:33:48.470Z,13.83
2022-11-04T05:36:18.576Z,14.37
2022-11-04T05:38:51.563Z,14.63
2022-11-04T05:41:26.602Z,13.90
2022-11-04T05:43:55.592Z,13.17
2022-11-04T05:46:25.097Z,15.20
2022-11-04T05:48:53.678Z,15.43
2022-11-04T05:51:24.510Z,14.73
2022-11-04T05:53:52.831Z,13.83
2022-11-04T05:56:22.691Z,14.13
2022-11-04T05:58:50.908Z,15.03
2022-11-04T06:01:29.573Z,14.77
2022-11-04T06:03:59.164Z,14.60
2022-11-04T06:06:30.092Z,13.67
2022-11-04T06:08:58.718Z,14.50
2022-11-04T06:11:30.052Z,13.43
2022-11-04T06:13:58.878Z,12.67
2022-11-04T06:16:27.781Z,15.27
2022-11-04T06:18:59.950Z,14.80
2022-11-04T06:21:33.990Z,13.10
2022-11-04T06:24:02.321Z,15.70
2022-11-04T06:26:32.185Z,13.87
2022-11-04T06:29:00.425Z,14.23
2022-11-04T06:31:28.972Z,15.53
2022-11-04T06:33:57.233Z,15.20
2022-11-04T06:36:25.759Z,14.70
2022-11-04T06:38:56.607Z,14.80
2022-11-04T06:41:28.616Z,14.20
2022-11-04T06:43:58.287Z,13.93
2022-11-04T06:46:29.370Z,14.60
2022-11-04T06:48:58.044Z,13.80
2022-11-04T06:51:26.955Z,14.33
2022-11-04T06:53:55.233Z,14.97
2022-11-04T06:56:24.072Z,14.30
2022-11-04T06:58:53.678Z,14.20
2022-11-04T07:01:25.915Z,15.73
2022-11-04T07:03:57.159Z,15.00
2022-11-04T07:06:26.498Z,14.50
2022-11-04T07:08:55.024Z,16.30
2022-11-04T07:11:25.099Z,15.37
2022-11-04T07:13:53.755Z,13.70
2022-11-04T07:16:23.919Z,14.17
2022-11-04T07:18:52.292Z,13.60
2022-11-04T07:21:20.812Z,13.63
2022-11-04T07:23:49.083Z,15.77
2022-11-04T07:26:17.956Z,14.20
2022-11-04T07:28:46.178Z,14.33
2022-11-04T07:31:15.804Z,17.70
2022-11-04T07:33:49.824Z,20.23
2022-11-04T07:36:19.329Z,15.03
2022-11-04T07:38:48.622Z,15.67
2022-11-04T07:41:18.171Z,13.53
2022-11-04T07:43:50.955Z,15.80
2022-11-04T07:46:20.761Z,17.47
2022-11-04T07:48:50.381Z,14.23
2022-11-04T07:51:21.865Z,13.20
2022-11-04T07:53:50.651Z,14.60
2022-11-04T07:56:20.007Z,13.73
2022-11-04T07:58:48.309Z,14.37
2022-11-04T08:01:19.796Z,14.53
2022-11-04T08:03:49.980Z,14.33
2022-11-04T08:06:21.281Z,15.13
2022-11-04T08:08:49.686Z,14.40
2022-11-04T08:11:20.660Z,12.83
2022-11-04T08:13:50.337Z,14.40
2022-11-04T08:16:21.910Z,13.63
2022-11-04T08:18:52.636Z,13.63
2022-11-04T08:21:23.003Z,13.87
2022-11-04T08:23:51.628Z,13.40
2022-11-04T08:26:21.395Z,13.67
2022-11-04T08:28:49.961Z,15.73
2022-11-04T08:31:20.497Z,14.57
2022-11-04T08:33:49.199Z,18.50
2022-11-04T08:36:20.144Z,15.00
2022-11-04T08:38:50.151Z,13.73
2022-11-04T08:41:21.966Z,13.33
2022-11-04T08:43:50.463Z,14.87
2022-11-04T08:46:19.559Z,14.93
2022-11-04T08:48:49.419Z,14.43
2022-11-04T08:51:22.427Z,15.47
2022-11-04T08:53:52.571Z,15.33
2022-11-04T08:56:23.921Z,15.37
2022-11-04T08:58:53.307Z,15.93
2022-11-04T09:01:23.064Z,16.50
2022-11-04T09:03:52.004Z,15.03
2022-11-04T09:06:22.931Z,15.63
2022-11-04T09:08:55.280Z,14.77
2022-11-04T09:11:24.179Z,13.35
2022-11-04T09:13:53.212Z,13.70
2022-11-04T09:16:21.725Z,15.60
2022-11-04T09:18:50.021Z,14.18
2022-11-04T09:21:18.534Z,14.97
2022-11-04T09:23:47.027Z,14.30
2022-11-04T09:26:17.780Z,14.10
2022-11-04T09:28:46.375Z,14.35
2022-11-04T09:31:17.444Z,14.63
2022-11-04T09:33:46.434Z,14.10
2022-11-04T09:36:15.054Z,14.40
2022-11-04T09:38:44.977Z,13.23
2022-11-04T09:41:34.726Z,14.60
2022-11-04T09:44:12.901Z,12.57
2022-11-04T09:46:42.527Z,14.82
2022-11-04T09:49:13.937Z,15.00
2022-11-04T09:51:54.538Z,14.52
2022-11-04T09:54:25.800Z,14.98
2022-11-04T09:56:58.954Z,14.77
2022-11-04T09:59:30.428Z,14.93
2022-11-04T10:02:22.479Z,16.25
2022-11-04T10:05:00.431Z,14.32
2022-11-04T10:07:44.135Z,15.57
2022-11-04T10:10:20.747Z,13.52
2022-11-04T10:13:09.443Z,13.98
2022-11-04T10:16:06.685Z,14.13
2022-11-04T10:18:47.933Z,13.52
2022-11-04T10:21:28.496Z,14.00
2022-11-04T10:24:08.957Z,13.43
2022-11-04T10:26:44.253Z,14.35
2022-11-04T10:29:17.787Z,15.93
2022-11-04T10:31:47.593Z,15.50
2022-11-04T10:34:30.829Z,14.88
2022-11-04T10:36:59.899Z,17.23
2022-11-04T10:39:31.370Z,14.55
2022-11-04T10:41:59.867Z,12.73
2022-11-04T10:44:33.298Z,12.55
2022-11-04T10:47:10.245Z,13.45
2022-11-04T10:50:21.956Z,13.43
2022-11-04T10:52:38.989Z,12.93
2022-11-04T10:55:16.208Z,13.75
2022-11-04T10:57:45.001Z,13.82
2022-11-04T11:00:34.993Z,14.57
2022-11-04T11:03:04.957Z,14.15
2022-11-04T11:05:33.451Z,12.95
2022-11-04T11:08:02.384Z,14.77
2022-11-04T11:10:33.488Z,13.55
2022-11-04T11:13:04.558Z,12.65
2022-11-04T11:15:36.694Z,17.33
2022-11-04T11:18:15.384Z,14.30
2022-11-04T11:20:48.946Z,14.38
2022-11-04T11:23:39.099Z,12.93
2022-11-04T11:26:09.894Z,12.63
2022-11-04T11:28:40.592Z,14.05
2022-11-04T11:31:16.675Z,12.93
2022-11-04T11:33:55.802Z,13.20
2022-11-04T11:36:26.427Z,13.15
2022-11-04T11:39:03.622Z,13.80
2022-11-04T11:41:33.660Z,12.82
2022-11-04T11:44:17.988Z,13.43
2022-11-04T11:46:54.698Z,13.30
2022-11-04T11:49:28.383Z,12.25
2022-11-04T11:51:57.454Z,13.68
2022-11-04T11:54:33.817Z,12.73
2022-11-04T11:57:16.039Z,12.82
2022-11-04T12:02:49.859Z,13.13
2022-11-04T12:11:20.943Z,12.57
2022-11-04T12:13:54.256Z,11.93
2022-11-04T12:16:32.299Z,11.77
2022-11-04T12:19:18.667Z,12.60
2022-11-04T12:21:55.598Z,12.85
2022-11-04T12:24:35.646Z,12.75
2022-11-04T12:27:14.215Z,12.98
2022-11-04T12:29:56.835Z,12.35
2022-11-04T12:32:32.917Z,12.57
2022-11-04T12:35:26.754Z,12.90
2022-11-04T12:38:06.879Z,12.93
2022-11-04T12:41:04.975Z,13.32
2022-11-04T12:43:42.146Z,12.57
2022-11-04T12:46:17.203Z,13.52
2022-11-04T12:49:07.317Z,13.27
2022-11-04T12:51:45.718Z,13.48
2022-11-04T12:54:40.038Z,11.77
2022-11-04T12:57:19.883Z,12.60
2022-11-04T13:00:09.434Z,13.98
2022-11-04T13:02:43.746Z,13.82
2022-11-04T13:05:27.254Z,13.90
2022-11-04T13:08:04.020Z,14.23
2022-11-04T13:10:40.914Z,13.90
2022-11-04T13:13:11.409Z,14.07
2022-11-04T13:15:46.944Z,13.75
2022-11-04T13:18:20.323Z,13.52
2022-11-04T13:20:57.919Z,13.32
2022-11-04T13:23:38.364Z,14.90
2022-11-04T13:26:11.171Z,14.57
2022-11-04T13:28:41.885Z,19.85
2022-11-04T13:31:16.337Z,19.48
2022-11-04T13:33:51.990Z,17.25
2022-11-04T13:36:30.515Z,14.85
2022-11-04T13:39:07.074Z,16.08
2022-11-04T13:42:14.241Z,15.10
2022-11-04T13:44:46.590Z,15.32
2022-11-04T13:47:22.168Z,15.90
2022-11-04T13:49:53.803Z,14.35
2022-11-04T13:52:22.758Z,14.00
2022-11-04T13:54:58.536Z,13.45
2022-11-04T13:57:28.980Z,12.75
2022-11-04T14:00:25.437Z,14.00
2022-11-04T14:02:54.957Z,13.20
2022-11-04T14:06:05.012Z,13.82
2022-11-04T14:08:34.175Z,14.15
2022-11-04T14:11:10.454Z,13.45
2022-11-04T14:14:05.177Z,13.75
2022-11-04T14:16:44.943Z,14.43
2022-11-04T14:19:55.742Z,14.02
2022-11-04T14:22:32.280Z,15.32
2022-11-04T14:25:02.576Z,16.50
2022-11-04T14:27:41.530Z,15.05
2022-11-04T14:30:32.232Z,13.65
2022-11-04T14:33:05.020Z,14.65
2022-11-04T14:35:34.086Z,14.43
2022-11-04T14:38:17.909Z,14.88
2022-11-04T14:40:49.182Z,14.65
2022-11-04T14:43:36.000Z,15.07
2022-11-04T14:46:04.700Z,16.83
2022-11-04T14:48:34.283Z,15.30
2022-11-04T14:51:05.228Z,15.63
2022-11-04T14:53:37.601Z,15.88
2022-11-04T14:56:07.539Z,16.58
2022-11-04T14:58:38.519Z,15.05
2022-11-04T15:01:07.791Z,15.63
2022-11-04T15:06:40.633Z,15.93
2022-11-04T15:09:29.168Z,17.40
2022-11-04T15:12:21.060Z,14.75
2022-11-04T15:14:50.914Z,14.93
2022-11-04T15:17:22.320Z,13.77
2022-11-04T15:19:54.264Z,14.63
2022-11-04T15:22:23.257Z,13.60
2022-11-04T15:24:52.209Z,14.65
2022-11-04T15:27:25.537Z,15.05
2022-11-04T15:29:57.073Z,14.20
2022-11-04T15:32:26.034Z,14.82
2022-11-04T15:34:55.377Z,13.80
2022-11-04T15:37:25.071Z,14.52
2022-11-04T15:39:56.173Z,14.52
2022-11-04T15:42:43.004Z,14.05
2022-11-04T15:45:32.521Z,13.63
2022-11-04T15:48:23.688Z,14.27
2022-11-04T15:50:58.721Z,19.67
2022-11-04T15:53:27.007Z,18.55
2022-11-04T15:55:55.928Z,17.10
2022-11-04T15:58:25.701Z,15.80
2022-11-04T16:00:57.039Z,15.70
2022-11-04T16:03:25.550Z,14.52
2022-11-04T16:06:05.316Z,20.67
2022-11-04T16:08:34.193Z,25.63
2022-11-04T16:11:17.016Z,23.40
2022-11-04T16:13:46.456Z,18.88
2022-11-04T16:16:23.556Z,17.40
2022-11-04T16:18:54.266Z,16.23
2022-11-04T16:21:26.841Z,15.73
2022-11-04T16:24:00.963Z,15.68
2022-11-04T16:26:37.556Z,15.95
2022-11-04T16:29:10.539Z,17.27
2022-11-04T16:31:41.016Z,18.25
2022-11-04T16:34:12.430Z,17.17
2022-11-04T16:36:41.156Z,15.95
2022-11-04T16:39:09.602Z,17.48
2022-11-04T16:41:41.537Z,17.08
2022-11-04T16:44:20.953Z,16.45
2022-11-04T16:46:50.947Z,16.92
2022-11-04T16:49:20.684Z,16.67
2022-11-04T16:51:54.306Z,17.17
2022-11-04T16:54:22.799Z,22.35
2022-11-04T16:56:51.616Z,16.55
2022-11-04T16:59:19.838Z,17.20
2022-11-04T17:01:48.598Z,17.92
2022-11-04T17:04:18.572Z,17.80
2022-11-04T17:06:47.256Z,17.73
2022-11-04T17:09:22.883Z,18.50
2022-11-04T17:11:51.576Z,16.90
2022-11-04T17:14:19.865Z,18.02
2022-11-04T17:16:48.528Z,17.10
2022-11-04T17:19:18.467Z,18.67
2022-11-04T17:21:47.655Z,18.90
2022-11-04T17:24:16.078Z,18.98
2022-11-04T17:26:46.190Z,18.65
2022-11-04T17:29:17.265Z,19.40
2022-11-04T17:31:46.343Z,18.27
2022-11-04T17:34:14.745Z,18.88
2022-11-04T17:36:44.753Z,19.27
2022-11-04T17:39:13.050Z,19.33
2022-11-04T17:41:59.191Z,18.58
2022-11-04T17:44:27.827Z,18.85
2022-11-04T17:46:57.835Z,20.95
2022-11-04T17:49:26.972Z,22.85
2022-11-04T17:52:00.570Z,26.00
2022-11-04T17:54:30.737Z,21.90
2022-11-04T17:56:59.722Z,24.17
2022-11-04T17:59:31.208Z,21.58
2022-11-04T18:02:04.420Z,21.60
2022-11-04T18:04:33.365Z,19.10
2022-11-04T18:07:04.017Z,18.00
2022-11-04T18:09:33.753Z,18.17
2022-11-04T18:12:21.888Z,18.75
2022-11-04T18:14:50.553Z,18.83
2022-11-04T18:17:20.376Z,19.08
2022-11-04T18:19:48.874Z,18.80
2022-11-04T18:22:19.171Z,17.83
2022-11-04T18:24:48.028Z,18.63
2022-11-04T18:27:16.881Z,19.75
2022-11-04T18:29:45.504Z,19.23
2022-11-04T18:32:14.345Z,20.52
2022-11-04T18:34:42.770Z,22.70
2022-11-04T18:37:11.397Z,31.17
2022-11-04T18:39:42.499Z,20.98
2022-11-04T18:42:11.702Z,19.27
2022-11-04T18:44:40.153Z,19.05
2022-11-04T18:47:08.772Z,19.50
2022-11-04T18:49:37.243Z,18.60
2022-11-04T18:52:06.058Z,18.00
2022-11-04T18:54:34.591Z,18.27
2022-11-04T18:57:05.180Z,19.02
2022-11-04T18:59:33.633Z,27.65
2022-11-04T19:02:02.963Z,32.15
2022-11-04T19:04:32.253Z,22.08
2022-11-04T19:07:02.015Z,19.05
2022-11-04T19:09:47.367Z,19.58
2022-11-04T19:12:35.775Z,18.52
2022-11-04T19:15:05.868Z,23.33
2022-11-04T19:17:36.764Z,22.45
2022-11-04T19:20:11.686Z,22.02
2022-11-04T19:22:41.520Z,19.52
2022-11-04T19:25:11.024Z,22.02
2022-11-04T19:27:41.142Z,22.67
2022-11-04T19:30:10.781Z,20.97
2022-11-04T19:32:40.076Z,21.57
2022-11-04T19:35:09.158Z,22.33
2022-11-04T19:37:37.964Z,19.42
2022-11-04T19:40:08.056Z,21.03
2022-11-04T19:42:54.520Z,20.40
2022-11-04T19:45:24.467Z,20.80
2022-11-04T19:47:53.573Z,21.27
2022-11-04T19:50:23.037Z,19.80
2022-11-04T19:52:52.495Z,21.27
2022-11-04T19:55:21.779Z,21.92
2022-11-04T19:57:51.212Z,20.17
2022-11-04T20:00:20.765Z,20.27
2022-11-04T20:02:51.953Z,22.27
2022-11-04T20:05:21.368Z,20.40
2022-11-04T20:07:54.433Z,20.20
2022-11-04T20:10:24.739Z,19.93
2022-11-04T20:13:23.252Z,20.90
2022-11-04T20:15:52.519Z,20.77
2022-11-04T20:18:23.017Z,20.37
2022-11-04T20:20:51.968Z,18.97
2022-11-04T20:23:21.098Z,20.90
2022-11-04T20:25:50.347Z,19.50
2022-11-04T20:28:20.197Z,19.97
2022-11-04T20:30:49.872Z,19.57
2022-11-04T20:33:18.966Z,18.40
2022-11-04T20:35:48.989Z,20.30
2022-11-04T20:38:18.249Z,19.27
2022-11-04T20:40:47.797Z,21.27
2022-11-04T20:43:17.963Z,20.43
2022-11-04T20:45:52.080Z,20.63
2022-11-04T20:48:21.485Z,19.23
2022-11-04T20:50:51.192Z,20.67
2022-11-04T20:53:20.838Z,19.70
2022-11-04T20:55:49.946Z,19.57
2022-11-04T20:58:18.813Z,19.53
2022-11-04T21:00:49.191Z,20.53
2022-11-04T21:03:18.110Z,19.43
2022-11-04T21:05:46.620Z,21.43
2022-11-04T21:08:17.440Z,20.07
2022-11-04T21:10:52.674Z,21.27
2022-11-04T21:13:22.175Z,20.57
2022-11-04T21:15:53.279Z,20.67
2022-11-04T21:18:23.265Z,21.40
2022-11-04T21:20:52.743Z,22.27
2022-11-04T21:23:24.680Z,19.97
2022-11-04T21:25:55.931Z,20.77
2022-11-04T21:28:25.323Z,22.73
2022-11-04T21:30:55.272Z,22.80
2022-11-04T21:33:24.042Z,21.97
2022-11-04T21:35:52.624Z,22.70
2022-11-04T21:38:24.461Z,20.27
2022-11-04T21:40:53.008Z,21.37
2022-11-04T21:43:21.972Z,22.20
2022-11-04T21:45:50.432Z,22.77
2022-11-04T21:48:19.178Z,22.50
2022-11-04T21:50:47.586Z,23.90
2022-11-04T21:53:16.247Z,23.00
2022-11-04T21:55:45.996Z,24.47
2022-11-04T21:58:14.621Z,25.57
2022-11-04T22:00:43.019Z,23.00
2022-11-04T22:03:12.363Z,22.67
2022-11-04T22:05:40.838Z,23.80
2022-11-04T22:08:18.797Z,22.77
2022-11-04T22:10:48.439Z,22.63
2022-11-04T22:13:17.080Z,23.53
2022-11-04T22:16:00.843Z,24.97
2022-11-04T22:18:32.075Z,26.27
2022-11-04T22:21:03.845Z,24.10
2022-11-04T22:23:32.461Z,25.03
2022-11-04T22:26:02.671Z,24.97
2022-11-04T22:28:32.282Z,23.37
2022-11-04T22:31:06.903Z,22.60
2022-11-04T22:33:35.689Z,23.33
2022-11-04T22:36:04.183Z,24.87
2022-11-04T22:38:33.097Z,23.87
2022-11-04T22:41:03.682Z,24.67
2022-11-04T22:43:32.677Z,23.03
2022-11-04T22:46:06.321Z,23.03
2022-11-04T22:48:35.608Z,22.63
2022-11-04T22:51:03.952Z,23.20
2022-11-04T22:53:32.576Z,22.70
2022-11-04T22:56:03.672Z,22.63
2022-11-04T22:58:32.276Z,22.77
2022-11-04T23:01:02.355Z,22.43
2022-11-04T23:03:31.882Z,24.83
2022-11-04T23:06:02.175Z,23.50
2022-11-04T23:08:32.374Z,22.80
2022-11-04T23:11:21.075Z,21.80
2022-11-04T23:14:13.193Z,22.60
2022-11-04T23:17:05.052Z,22.40
2022-11-04T23:19:33.848Z,25.33
2022-11-04T23:22:19.463Z,23.97
2022-11-04T23:25:05.918Z,23.80
2022-11-04T23:27:53.386Z,22.97
2022-11-04T23:30:22.746Z,21.13
2022-11-04T23:32:52.145Z,20.37
2022-11-04T23:35:42.112Z,23.97
2022-11-04T23:38:10.750Z,21.57
2022-11-04T23:40:39.713Z,23.07
2022-11-04T23:43:09.993Z,21.60
2022-11-04T23:45:56.412Z,20.87
2022-11-04T23:48:41.977Z,21.60
2022-11-04T23:51:29.520Z,21.60
2022-11-04T23:54:20.378Z,20.63
2022-11-04T23:57:06.524Z,24.20
2022-11-04T23:59:54.121Z,20.80
